sensor_id;sensor_type;location;lat;lon;timestamp;P1;durP1;ratioP1;P2;durP2;ratioP2
22468;SDS011;11401;50.792;4.352;2023-02-28T00:01:07;7.78;;;6.38;;
22468;SDS011;11401;50.792;4.352;2023-02-28T00:03:34;7.03;;;5.35;;
22468;SDS011;11401;50.792;4.352;2023-02-28T00:06:05;7.63;;;5.57;;
22468;SDS011;11401;50.792;4.352;2023-02-28T00:08:33;8.63;;;5.78;;
22468;SDS011;11401;50.792;4.352;2023-02-28T00:11:00;7.47;;;5.85;;
22468;SDS011;11401;50.792;4.352;2023-02-28T00:13:29;10.05;;;5.63;;
22468;SDS011;11401;50.792;4.352;2023-02-28T00:16:00;9.02;;;5.68;;
22468;SDS011;11401;50.792;4.352;2023-02-28T00:18:31;8.25;;;5.10;;
22468;SDS011;11401;50.792;4.352;2023-02-28T00:20:58;6.47;;;5.03;;
22468;SDS011;11401;50.792;4.352;2023-02-28T00:23:26;8.85;;;5.60;;
22468;SDS011;11401;50.792;4.352;2023-02-28T00:25:53;7.15;;;5.43;;
22468;SDS011;11401;50.792;4.352;2023-02-28T00:28:21;7.40;;;5.60;;
22468;SDS011;11401;50.792;4.352;2023-02-28T00:30:48;8.38;;;5.53;;
22468;SDS011;11401;50.792;4.352;2023-02-28T00:33:15;12.43;;;4.65;;
22468;SDS011;11401;50.792;4.352;2023-02-28T00:35:42;7.00;;;5.05;;
22468;SDS011;11401;50.792;4.352;2023-02-28T00:38:13;8.18;;;4.80;;
22468;SDS011;11401;50.792;4.352;2023-02-28T00:40:40;5.80;;;4.70;;
22468;SDS011;11401;50.792;4.352;2023-02-28T00:43:10;8.13;;;5.32;;
22468;SDS011;11401;50.792;4.352;2023-02-28T00:45:37;5.85;;;4.32;;
22468;SDS011;11401;50.792;4.352;2023-02-28T00:48:04;8.50;;;5.10;;
22468;SDS011;11401;50.792;4.352;2023-02-28T00:50:31;5.05;;;4.22;;
22468;SDS011;11401;50.792;4.352;2023-02-28T00:52:58;7.10;;;4.68;;
22468;SDS011;11401;50.792;4.352;2023-02-28T00:55:25;5.47;;;4.53;;
22468;SDS011;11401;50.792;4.352;2023-02-28T00:57:52;4.63;;;4.13;;
22468;SDS011;11401;50.792;4.352;2023-02-28T01:00:19;6.97;;;4.70;;
22468;SDS011;11401;50.792;4.352;2023-02-28T01:02:49;4.60;;;4.20;;
22468;SDS011;11401;50.792;4.352;2023-02-28T01:05:16;5.65;;;3.97;;
22468;SDS011;11401;50.792;4.352;2023-02-28T01:07:44;4.85;;;4.35;;
22468;SDS011;11401;50.792;4.352;2023-02-28T01:10:11;5.63;;;4.25;;
22468;SDS011;11401;50.792;4.352;2023-02-28T01:12:38;7.20;;;4.30;;
22468;SDS011;11401;50.792;4.352;2023-02-28T01:15:09;5.13;;;4.53;;
22468;SDS011;11401;50.792;4.352;2023-02-28T01:17:37;5.40;;;4.28;;
22468;SDS011;11401;50.792;4.352;2023-02-28T01:20:04;6.50;;;3.92;;
22468;SDS011;11401;50.792;4.352;2023-02-28T01:22:31;8.10;;;5.32;;
22468;SDS011;11401;50.792;4.352;2023-02-28T01:24:59;5.22;;;4.30;;
22468;SDS011;11401;50.792;4.352;2023-02-28T01:27:26;5.45;;;4.68;;
22468;SDS011;11401;50.792;4.352;2023-02-28T01:29:54;5.05;;;4.13;;
22468;SDS011;11401;50.792;4.352;2023-02-28T01:32:21;6.40;;;4.35;;
22468;SDS011;11401;50.792;4.352;2023-02-28T01:34:49;7.22;;;4.82;;
22468;SDS011;11401;50.792;4.352;2023-02-28T01:37:16;5.78;;;5.00;;
22468;SDS011;11401;50.792;4.352;2023-02-28T01:39:43;7.55;;;4.60;;
22468;SDS011;11401;50.792;4.352;2023-02-28T01:42:09;5.35;;;4.85;;
22468;SDS011;11401;50.792;4.352;2023-02-28T01:44:57;4.68;;;4.07;;
22468;SDS011;11401;50.792;4.352;2023-02-28T01:47:26;7.82;;;5.13;;
22468;SDS011;11401;50.792;4.352;2023-02-28T01:49:58;5.28;;;4.50;;
22468;SDS011;11401;50.792;4.352;2023-02-28T01:52:29;9.43;;;5.03;;
22468;SDS011;11401;50.792;4.352;2023-02-28T01:54:59;5.22;;;4.70;;
22468;SDS011;11401;50.792;4.352;2023-02-28T01:57:30;6.60;;;4.47;;
22468;SDS011;11401;50.792;4.352;2023-02-28T02:00:10;6.18;;;4.57;;
22468;SDS011;11401;50.792;4.352;2023-02-28T02:02:46;6.25;;;4.20;;
22468;SDS011;11401;50.792;4.352;2023-02-28T02:05:18;5.85;;;4.47;;
22468;SDS011;11401;50.792;4.352;2023-02-28T02:07:48;5.00;;;4.50;;
22468;SDS011;11401;50.792;4.352;2023-02-28T02:10:21;7.97;;;4.57;;
22468;SDS011;11401;50.792;4.352;2023-02-28T02:18:15;5.15;;;4.60;;
22468;SDS011;11401;50.792;4.352;2023-02-28T02:29:23;7.22;;;4.18;;
22468;SDS011;11401;50.792;4.352;2023-02-28T02:34:35;7.53;;;4.88;;
22468;SDS011;11401;50.792;4.352;2023-02-28T02:40:22;6.05;;;4.97;;
22468;SDS011;11401;50.792;4.352;2023-02-28T02:45:46;5.50;;;4.97;;
22468;SDS011;11401;50.792;4.352;2023-02-28T02:48:24;5.30;;;4.25;;
22468;SDS011;11401;50.792;4.352;2023-02-28T02:50:57;6.03;;;5.20;;
22468;SDS011;11401;50.792;4.352;2023-02-28T02:53:34;7.22;;;4.75;;
22468;SDS011;11401;50.792;4.352;2023-02-28T02:56:07;6.57;;;4.90;;
22468;SDS011;11401;50.792;4.352;2023-02-28T02:58:37;5.78;;;5.05;;
22468;SDS011;11401;50.792;4.352;2023-02-28T03:01:10;8.98;;;4.63;;
22468;SDS011;11401;50.792;4.352;2023-02-28T03:03:42;7.50;;;5.40;;
22468;SDS011;11401;50.792;4.352;2023-02-28T03:06:11;9.90;;;5.57;;
22468;SDS011;11401;50.792;4.352;2023-02-28T03:08:38;6.28;;;5.22;;
22468;SDS011;11401;50.792;4.352;2023-02-28T03:11:06;10.82;;;5.28;;
22468;SDS011;11401;50.792;4.352;2023-02-28T03:13:59;6.20;;;5.38;;
22468;SDS011;11401;50.792;4.352;2023-02-28T03:19:45;7.22;;;5.55;;
22468;SDS011;11401;50.792;4.352;2023-02-28T03:27:36;10.95;;;5.40;;
22468;SDS011;11401;50.792;4.352;2023-02-28T03:31:06;6.53;;;5.63;;
22468;SDS011;11401;50.792;4.352;2023-02-28T03:33:35;8.45;;;5.72;;
22468;SDS011;11401;50.792;4.352;2023-02-28T03:36:10;6.50;;;5.57;;
22468;SDS011;11401;50.792;4.352;2023-02-28T03:41:19;8.75;;;6.10;;
22468;SDS011;11401;50.792;4.352;2023-02-28T03:44:03;5.90;;;5.40;;
22468;SDS011;11401;50.792;4.352;2023-02-28T03:46:38;8.05;;;5.78;;
22468;SDS011;11401;50.792;4.352;2023-02-28T03:49:13;7.03;;;6.00;;
22468;SDS011;11401;50.792;4.352;2023-02-28T03:51:43;8.68;;;6.38;;
22468;SDS011;11401;50.792;4.352;2023-02-28T03:54:15;7.75;;;5.88;;
22468;SDS011;11401;50.792;4.352;2023-02-28T03:59:51;8.93;;;5.75;;
22468;SDS011;11401;50.792;4.352;2023-02-28T04:02:25;6.82;;;6.10;;
22468;SDS011;11401;50.792;4.352;2023-02-28T04:04:53;6.85;;;6.00;;
22468;SDS011;11401;50.792;4.352;2023-02-28T04:07:20;9.00;;;6.32;;
22468;SDS011;11401;50.792;4.352;2023-02-28T04:09:47;6.00;;;5.43;;
22468;SDS011;11401;50.792;4.352;2023-02-28T04:12:14;6.93;;;5.68;;
22468;SDS011;11401;50.792;4.352;2023-02-28T04:14:41;7.35;;;6.35;;
22468;SDS011;11401;50.792;4.352;2023-02-28T04:17:08;7.45;;;6.35;;
22468;SDS011;11401;50.792;4.352;2023-02-28T04:19:35;6.30;;;5.68;;
22468;SDS011;11401;50.792;4.352;2023-02-28T04:22:03;6.80;;;5.65;;
22468;SDS011;11401;50.792;4.352;2023-02-28T04:24:30;9.43;;;6.22;;
22468;SDS011;11401;50.792;4.352;2023-02-28T04:26:57;9.20;;;7.35;;
22468;SDS011;11401;50.792;4.352;2023-02-28T04:29:26;8.35;;;6.00;;
22468;SDS011;11401;50.792;4.352;2023-02-28T04:31:55;12.07;;;6.35;;
22468;SDS011;11401;50.792;4.352;2023-02-28T04:34:27;13.68;;;6.20;;
22468;SDS011;11401;50.792;4.352;2023-02-28T04:36:56;7.28;;;5.70;;
22468;SDS011;11401;50.792;4.352;2023-02-28T04:39:38;7.07;;;5.75;;
22468;SDS011;11401;50.792;4.352;2023-02-28T04:42:05;10.70;;;5.95;;
22468;SDS011;11401;50.792;4.352;2023-02-28T04:44:33;10.10;;;6.53;;
22468;SDS011;11401;50.792;4.352;2023-02-28T04:47:02;10.25;;;6.40;;
22468;SDS011;11401;50.792;4.352;2023-02-28T04:49:29;10.10;;;7.82;;
22468;SDS011;11401;50.792;4.352;2023-02-28T04:51:56;9.00;;;6.68;;
22468;SDS011;11401;50.792;4.352;2023-02-28T04:54:23;8.98;;;6.50;;
22468;SDS011;11401;50.792;4.352;2023-02-28T04:56:50;9.13;;;6.97;;
22468;SDS011;11401;50.792;4.352;2023-02-28T04:59:17;10.93;;;6.80;;
22468;SDS011;11401;50.792;4.352;2023-02-28T05:01:45;9.27;;;6.50;;
22468;SDS011;11401;50.792;4.352;2023-02-28T05:04:13;9.40;;;7.32;;
22468;SDS011;11401;50.792;4.352;2023-02-28T05:06:42;7.97;;;6.70;;
22468;SDS011;11401;50.792;4.352;2023-02-28T05:09:09;8.85;;;6.10;;
22468;SDS011;11401;50.792;4.352;2023-02-28T05:11:38;9.30;;;6.55;;
22468;SDS011;11401;50.792;4.352;2023-02-28T05:14:12;9.18;;;6.60;;
22468;SDS011;11401;50.792;4.352;2023-02-28T05:16:41;12.73;;;7.30;;
22468;SDS011;11401;50.792;4.352;2023-02-28T05:19:08;8.77;;;6.47;;
22468;SDS011;11401;50.792;4.352;2023-02-28T05:21:36;8.30;;;5.88;;
22468;SDS011;11401;50.792;4.352;2023-02-28T05:24:07;7.07;;;6.28;;
22468;SDS011;11401;50.792;4.352;2023-02-28T05:26:39;9.75;;;6.65;;
22468;SDS011;11401;50.792;4.352;2023-02-28T05:29:07;8.25;;;6.70;;
22468;SDS011;11401;50.792;4.352;2023-02-28T05:31:35;12.45;;;7.65;;
22468;SDS011;11401;50.792;4.352;2023-02-28T05:34:02;8.70;;;6.65;;
22468;SDS011;11401;50.792;4.352;2023-02-28T05:36:32;8.88;;;6.25;;
22468;SDS011;11401;50.792;4.352;2023-02-28T05:38:59;9.63;;;6.32;;
22468;SDS011;11401;50.792;4.352;2023-02-28T05:41:26;9.25;;;6.22;;
22468;SDS011;11401;50.792;4.352;2023-02-28T05:43:54;8.43;;;6.47;;
22468;SDS011;11401;50.792;4.352;2023-02-28T05:46:21;11.45;;;6.80;;
22468;SDS011;11401;50.792;4.352;2023-02-28T05:48:50;10.05;;;7.43;;
22468;SDS011;11401;50.792;4.352;2023-02-28T05:51:17;9.10;;;6.43;;
22468;SDS011;11401;50.792;4.352;2023-02-28T05:53:44;11.73;;;7.00;;
22468;SDS011;11401;50.792;4.352;2023-02-28T05:56:11;7.00;;;6.32;;
22468;SDS011;11401;50.792;4.352;2023-02-28T05:58:38;8.07;;;6.75;;
22468;SDS011;11401;50.792;4.352;2023-02-28T06:01:26;11.57;;;6.75;;
22468;SDS011;11401;50.792;4.352;2023-02-28T06:04:00;8.68;;;6.63;;
22468;SDS011;11401;50.792;4.352;2023-02-28T06:06:28;10.10;;;6.43;;
22468;SDS011;11401;50.792;4.352;2023-02-28T06:09:05;11.35;;;7.00;;
22468;SDS011;11401;50.792;4.352;2023-02-28T06:11:33;13.38;;;6.40;;
22468;SDS011;11401;50.792;4.352;2023-02-28T06:14:00;9.95;;;6.97;;
22468;SDS011;11401;50.792;4.352;2023-02-28T06:16:29;11.85;;;6.90;;
22468;SDS011;11401;50.792;4.352;2023-02-28T06:18:58;8.93;;;6.78;;
22468;SDS011;11401;50.792;4.352;2023-02-28T06:21:26;8.30;;;7.43;;
22468;SDS011;11401;50.792;4.352;2023-02-28T06:23:55;11.23;;;7.72;;
22468;SDS011;11401;50.792;4.352;2023-02-28T06:26:22;13.68;;;7.20;;
22468;SDS011;11401;50.792;4.352;2023-02-28T06:28:50;11.15;;;6.82;;
22468;SDS011;11401;50.792;4.352;2023-02-28T06:31:17;11.55;;;6.63;;
22468;SDS011;11401;50.792;4.352;2023-02-28T06:33:45;7.78;;;6.95;;
22468;SDS011;11401;50.792;4.352;2023-02-28T06:36:13;10.07;;;7.32;;
22468;SDS011;11401;50.792;4.352;2023-02-28T06:38:40;13.95;;;7.68;;
22468;SDS011;11401;50.792;4.352;2023-02-28T06:41:08;18.17;;;8.07;;
22468;SDS011;11401;50.792;4.352;2023-02-28T06:43:36;21.23;;;9.18;;
22468;SDS011;11401;50.792;4.352;2023-02-28T06:46:07;15.95;;;7.45;;
22468;SDS011;11401;50.792;4.352;2023-02-28T06:48:35;13.40;;;7.95;;
22468;SDS011;11401;50.792;4.352;2023-02-28T06:51:08;12.80;;;6.85;;
22468;SDS011;11401;50.792;4.352;2023-02-28T06:53:37;10.90;;;7.72;;
22468;SDS011;11401;50.792;4.352;2023-02-28T06:56:08;12.38;;;6.40;;
22468;SDS011;11401;50.792;4.352;2023-02-28T06:58:37;16.42;;;7.72;;
22468;SDS011;11401;50.792;4.352;2023-02-28T07:01:06;7.65;;;6.57;;
22468;SDS011;11401;50.792;4.352;2023-02-28T07:03:35;8.13;;;5.82;;
22468;SDS011;11401;50.792;4.352;2023-02-28T07:06:02;10.23;;;6.32;;
22468;SDS011;11401;50.792;4.352;2023-02-28T07:08:31;10.52;;;6.78;;
22468;SDS011;11401;50.792;4.352;2023-02-28T07:10:58;12.13;;;7.20;;
22468;SDS011;11401;50.792;4.352;2023-02-28T07:13:25;11.88;;;6.43;;
22468;SDS011;11401;50.792;4.352;2023-02-28T07:15:56;8.75;;;5.55;;
22468;SDS011;11401;50.792;4.352;2023-02-28T07:18:25;7.90;;;6.03;;
22468;SDS011;11401;50.792;4.352;2023-02-28T07:20:52;13.80;;;6.30;;
22468;SDS011;11401;50.792;4.352;2023-02-28T07:23:19;10.25;;;6.20;;
22468;SDS011;11401;50.792;4.352;2023-02-28T07:25:47;11.20;;;7.28;;
22468;SDS011;11401;50.792;4.352;2023-02-28T07:28:14;9.57;;;6.75;;
22468;SDS011;11401;50.792;4.352;2023-02-28T07:30:41;7.28;;;6.35;;
22468;SDS011;11401;50.792;4.352;2023-02-28T07:33:08;7.00;;;6.28;;
22468;SDS011;11401;50.792;4.352;2023-02-28T07:35:35;7.75;;;6.78;;
22468;SDS011;11401;50.792;4.352;2023-02-28T07:38:03;8.52;;;6.78;;
22468;SDS011;11401;50.792;4.352;2023-02-28T07:40:30;7.13;;;6.40;;
22468;SDS011;11401;50.792;4.352;2023-02-28T07:42:58;7.53;;;6.03;;
22468;SDS011;11401;50.792;4.352;2023-02-28T07:45:27;13.13;;;6.38;;
22468;SDS011;11401;50.792;4.352;2023-02-28T07:47:55;9.50;;;6.22;;
22468;SDS011;11401;50.792;4.352;2023-02-28T07:50:22;12.48;;;6.13;;
22468;SDS011;11401;50.792;4.352;2023-02-28T07:52:52;7.45;;;5.18;;
22468;SDS011;11401;50.792;4.352;2023-02-28T07:55:19;9.13;;;6.07;;
22468;SDS011;11401;50.792;4.352;2023-02-28T07:57:46;8.15;;;6.00;;
22468;SDS011;11401;50.792;4.352;2023-02-28T08:00:13;6.15;;;5.55;;
22468;SDS011;11401;50.792;4.352;2023-02-28T08:02:40;6.05;;;5.05;;
22468;SDS011;11401;50.792;4.352;2023-02-28T08:05:08;7.38;;;5.25;;
22468;SDS011;11401;50.792;4.352;2023-02-28T08:07:35;7.00;;;5.30;;
22468;SDS011;11401;50.792;4.352;2023-02-28T08:10:02;9.15;;;5.65;;
22468;SDS011;11401;50.792;4.352;2023-02-28T08:12:31;9.50;;;5.55;;
22468;SDS011;11401;50.792;4.352;2023-02-28T08:14:59;7.63;;;5.10;;
22468;SDS011;11401;50.792;4.352;2023-02-28T08:17:26;7.13;;;5.40;;
22468;SDS011;11401;50.792;4.352;2023-02-28T08:19:53;7.15;;;5.65;;
22468;SDS011;11401;50.792;4.352;2023-02-28T08:22:20;8.23;;;5.32;;
22468;SDS011;11401;50.792;4.352;2023-02-28T08:24:50;6.70;;;5.30;;
22468;SDS011;11401;50.792;4.352;2023-02-28T08:27:17;5.25;;;4.80;;
22468;SDS011;11401;50.792;4.352;2023-02-28T08:29:44;5.65;;;4.90;;
22468;SDS011;11401;50.792;4.352;2023-02-28T08:32:11;7.40;;;4.57;;
22468;SDS011;11401;50.792;4.352;2023-02-28T08:34:54;6.20;;;4.88;;
22468;SDS011;11401;50.792;4.352;2023-02-28T08:37:22;6.35;;;4.63;;
22468;SDS011;11401;50.792;4.352;2023-02-28T08:39:49;11.57;;;6.30;;
22468;SDS011;11401;50.792;4.352;2023-02-28T08:42:20;5.32;;;4.75;;
22468;SDS011;11401;50.792;4.352;2023-02-28T08:44:48;8.60;;;4.85;;
22468;SDS011;11401;50.792;4.352;2023-02-28T08:47:15;12.68;;;4.80;;
22468;SDS011;11401;50.792;4.352;2023-02-28T08:49:42;8.25;;;5.15;;
22468;SDS011;11401;50.792;4.352;2023-02-28T08:52:09;7.18;;;5.10;;
22468;SDS011;11401;50.792;4.352;2023-02-28T08:54:36;7.93;;;4.95;;
22468;SDS011;11401;50.792;4.352;2023-02-28T08:57:03;8.07;;;4.63;;
22468;SDS011;11401;50.792;4.352;2023-02-28T08:59:30;6.60;;;5.07;;
22468;SDS011;11401;50.792;4.352;2023-02-28T09:01:58;5.85;;;4.70;;
22468;SDS011;11401;50.792;4.352;2023-02-28T09:04:25;9.90;;;4.43;;
22468;SDS011;11401;50.792;4.352;2023-02-28T09:06:52;5.90;;;4.53;;
22468;SDS011;11401;50.792;4.352;2023-02-28T09:09:20;7.63;;;4.60;;
22468;SDS011;11401;50.792;4.352;2023-02-28T09:11:47;8.52;;;4.82;;
22468;SDS011;11401;50.792;4.352;2023-02-28T09:14:14;8.07;;;4.60;;
22468;SDS011;11401;50.792;4.352;2023-02-28T09:16:41;9.18;;;5.15;;
22468;SDS011;11401;50.792;4.352;2023-02-28T09:19:10;7.53;;;4.57;;
22468;SDS011;11401;50.792;4.352;2023-02-28T09:21:38;7.53;;;4.45;;
22468;SDS011;11401;50.792;4.352;2023-02-28T09:24:06;4.50;;;3.83;;
22468;SDS011;11401;50.792;4.352;2023-02-28T09:26:34;6.95;;;4.38;;
22468;SDS011;11401;50.792;4.352;2023-02-28T09:29:08;4.60;;;3.30;;
22468;SDS011;11401;50.792;4.352;2023-02-28T09:31:35;5.93;;;4.10;;
22468;SDS011;11401;50.792;4.352;2023-02-28T09:34:03;6.00;;;3.53;;
22468;SDS011;11401;50.792;4.352;2023-02-28T09:36:30;4.88;;;3.75;;
22468;SDS011;11401;50.792;4.352;2023-02-28T09:39:10;5.63;;;3.22;;
22468;SDS011;11401;50.792;4.352;2023-02-28T09:41:39;4.20;;;3.80;;
22468;SDS011;11401;50.792;4.352;2023-02-28T09:49:51;4.07;;;3.20;;
22468;SDS011;11401;50.792;4.352;2023-02-28T09:52:28;3.35;;;3.03;;
22468;SDS011;11401;50.792;4.352;2023-02-28T09:55:00;3.33;;;3.03;;
22468;SDS011;11401;50.792;4.352;2023-02-28T09:57:44;3.47;;;3.20;;
22468;SDS011;11401;50.792;4.352;2023-02-28T10:00:15;4.15;;;2.90;;
22468;SDS011;11401;50.792;4.352;2023-02-28T10:05:34;4.47;;;2.88;;
22468;SDS011;11401;50.792;4.352;2023-02-28T10:08:25;7.25;;;3.08;;
22468;SDS011;11401;50.792;4.352;2023-02-28T10:11:00;4.43;;;3.55;;
22468;SDS011;11401;50.792;4.352;2023-02-28T10:13:34;3.58;;;3.28;;
22468;SDS011;11401;50.792;4.352;2023-02-28T10:16:18;3.50;;;3.20;;
22468;SDS011;11401;50.792;4.352;2023-02-28T10:18:48;3.33;;;2.42;;
22468;SDS011;11401;50.792;4.352;2023-02-28T10:21:32;2.90;;;2.70;;
22468;SDS011;11401;50.792;4.352;2023-02-28T10:24:55;3.13;;;2.83;;
22468;SDS011;11401;50.792;4.352;2023-02-28T10:27:21;12.38;;;2.80;;
22468;SDS011;11401;50.792;4.352;2023-02-28T10:29:54;3.75;;;3.35;;
22468;SDS011;11401;50.792;4.352;2023-02-28T10:32:23;4.20;;;2.88;;
22468;SDS011;11401;50.792;4.352;2023-02-28T10:37:39;4.00;;;2.58;;
22468;SDS011;11401;50.792;4.352;2023-02-28T10:45:52;2.95;;;2.45;;
22468;SDS011;11401;50.792;4.352;2023-02-28T10:53:25;2.70;;;2.50;;
22468;SDS011;11401;50.792;4.352;2023-02-28T11:01:52;5.90;;;2.40;;
22468;SDS011;11401;50.792;4.352;2023-02-28T11:09:53;3.33;;;3.03;;
22468;SDS011;11401;50.792;4.352;2023-02-28T11:14:54;3.20;;;2.53;;
22468;SDS011;11401;50.792;4.352;2023-02-28T11:17:27;3.45;;;2.60;;
22468;SDS011;11401;50.792;4.352;2023-02-28T11:19:58;3.17;;;2.88;;
22468;SDS011;11401;50.792;4.352;2023-02-28T11:22:35;3.22;;;2.92;;
22468;SDS011;11401;50.792;4.352;2023-02-28T11:27:58;2.90;;;2.70;;
22468;SDS011;11401;50.792;4.352;2023-02-28T11:30:37;2.97;;;2.60;;
22468;SDS011;11401;50.792;4.352;2023-02-28T11:33:23;2.47;;;2.28;;
22468;SDS011;11401;50.792;4.352;2023-02-28T11:36:01;3.13;;;2.80;;
22468;SDS011;11401;50.792;4.352;2023-02-28T11:38:36;2.47;;;2.28;;
22468;SDS011;11401;50.792;4.352;2023-02-28T11:52:45;4.22;;;3.08;;
22468;SDS011;11401;50.792;4.352;2023-02-28T11:55:16;3.20;;;2.90;;
22468;SDS011;11401;50.792;4.352;2023-02-28T12:14:21;3.33;;;2.92;;
22468;SDS011;11401;50.792;4.352;2023-02-28T12:16:48;4.28;;;3.67;;
22468;SDS011;11401;50.792;4.352;2023-02-28T12:22:00;2.90;;;2.47;;
22468;SDS011;11401;50.792;4.352;2023-02-28T12:27:11;2.78;;;2.58;;
22468;SDS011;11401;50.792;4.352;2023-02-28T12:37:41;3.10;;;2.80;;
22468;SDS011;11401;50.792;4.352;2023-02-28T12:40:27;5.13;;;2.90;;
22468;SDS011;11401;50.792;4.352;2023-02-28T12:43:02;3.67;;;2.67;;
22468;SDS011;11401;50.792;4.352;2023-02-28T12:45:53;4.25;;;2.95;;
22468;SDS011;11401;50.792;4.352;2023-02-28T12:48:29;4.38;;;2.92;;
22468;SDS011;11401;50.792;4.352;2023-02-28T12:51:04;4.32;;;3.35;;
22468;SDS011;11401;50.792;4.352;2023-02-28T12:53:52;3.20;;;2.90;;
22468;SDS011;11401;50.792;4.352;2023-02-28T12:59:13;4.10;;;2.20;;
22468;SDS011;11401;50.792;4.352;2023-02-28T13:02:02;2.78;;;2.58;;
22468;SDS011;11401;50.792;4.352;2023-02-28T13:07:10;3.97;;;2.55;;
22468;SDS011;11401;50.792;4.352;2023-02-28T13:09:59;3.00;;;2.70;;
22468;SDS011;11401;50.792;4.352;2023-02-28T13:12:28;3.03;;;2.70;;
22468;SDS011;11401;50.792;4.352;2023-02-28T13:15:12;3.60;;;2.63;;
22468;SDS011;11401;50.792;4.352;2023-02-28T13:17:43;2.85;;;2.55;;
22468;SDS011;11401;50.792;4.352;2023-02-28T13:20:19;3.40;;;3.10;;
22468;SDS011;11401;50.792;4.352;2023-02-28T13:22:52;2.40;;;2.20;;
22468;SDS011;11401;50.792;4.352;2023-02-28T13:28:00;3.97;;;2.83;;
22468;SDS011;11401;50.792;4.352;2023-02-28T13:38:47;2.88;;;2.60;;
22468;SDS011;11401;50.792;4.352;2023-02-28T13:59:51;2.88;;;2.50;;
22468;SDS011;11401;50.792;4.352;2023-02-28T14:05:37;3.67;;;3.00;;
22468;SDS011;11401;50.792;4.352;2023-02-28T14:08:11;4.72;;;3.05;;
22468;SDS011;11401;50.792;4.352;2023-02-28T14:10:48;2.33;;;2.22;;
22468;SDS011;11401;50.792;4.352;2023-02-28T14:13:38;2.47;;;2.28;;
22468;SDS011;11401;50.792;4.352;2023-02-28T14:16:16;2.75;;;2.55;;
22468;SDS011;11401;50.792;4.352;2023-02-28T14:18:49;3.30;;;3.03;;
22468;SDS011;11401;50.792;4.352;2023-02-28T14:29:14;3.65;;;2.38;;
22468;SDS011;11401;50.792;4.352;2023-02-28T14:31:54;3.20;;;2.53;;
22468;SDS011;11401;50.792;4.352;2023-02-28T14:34:37;4.00;;;2.47;;
22468;SDS011;11401;50.792;4.352;2023-02-28T14:37:16;3.25;;;2.60;;
22468;SDS011;11401;50.792;4.352;2023-02-28T14:39:49;2.92;;;2.53;;
22468;SDS011;11401;50.792;4.352;2023-02-28T14:45:01;2.97;;;2.70;;
22468;SDS011;11401;50.792;4.352;2023-02-28T14:47:30;2.78;;;2.53;;
22468;SDS011;11401;50.792;4.352;2023-02-28T14:49:59;3.38;;;2.70;;
22468;SDS011;11401;50.792;4.352;2023-02-28T14:52:28;2.90;;;2.70;;
22468;SDS011;11401;50.792;4.352;2023-02-28T14:57:41;2.53;;;2.33;;
22468;SDS011;11401;50.792;4.352;2023-02-28T15:00:21;3.08;;;2.78;;
22468;SDS011;11401;50.792;4.352;2023-02-28T15:02:57;4.97;;;2.60;;
22468;SDS011;11401;50.792;4.352;2023-02-28T15:05:32;3.15;;;2.95;;
22468;SDS011;11401;50.792;4.352;2023-02-28T15:08:02;2.75;;;2.55;;
22468;SDS011;11401;50.792;4.352;2023-02-28T15:10:38;4.40;;;2.97;;
22468;SDS011;11401;50.792;4.352;2023-02-28T15:13:11;2.85;;;2.65;;
22468;SDS011;11401;50.792;4.352;2023-02-28T15:21:07;5.07;;;3.08;;
22468;SDS011;11401;50.792;4.352;2023-02-28T15:23:54;2.75;;;2.55;;
22468;SDS011;11401;50.792;4.352;2023-02-28T15:26:23;5.00;;;3.10;;
22468;SDS011;11401;50.792;4.352;2023-02-28T15:28:57;3.55;;;2.90;;
22468;SDS011;11401;50.792;4.352;2023-02-28T15:31:41;3.10;;;2.90;;
22468;SDS011;11401;50.792;4.352;2023-02-28T15:34:36;3.03;;;2.70;;
22468;SDS011;11401;50.792;4.352;2023-02-28T15:39:57;3.20;;;2.90;;
22468;SDS011;11401;50.792;4.352;2023-02-28T15:42:31;4.85;;;2.80;;
22468;SDS011;11401;50.792;4.352;2023-02-28T15:44:58;3.13;;;2.92;;
22468;SDS011;11401;50.792;4.352;2023-02-28T15:47:26;5.05;;;3.00;;
22468;SDS011;11401;50.792;4.352;2023-02-28T15:50:03;4.35;;;2.80;;
22468;SDS011;11401;50.792;4.352;2023-02-28T15:52:41;3.03;;;2.83;;
22468;SDS011;11401;50.792;4.352;2023-02-28T15:57:55;2.97;;;2.75;;
22468;SDS011;11401;50.792;4.352;2023-02-28T16:00:27;5.72;;;2.78;;
22468;SDS011;11401;50.792;4.352;2023-02-28T16:02:56;3.20;;;3.00;;
22468;SDS011;11401;50.792;4.352;2023-02-28T16:07:55;3.38;;;3.17;;
22468;SDS011;11401;50.792;4.352;2023-02-28T16:10:24;2.70;;;2.50;;
22468;SDS011;11401;50.792;4.352;2023-02-28T16:12:54;3.15;;;2.80;;
22468;SDS011;11401;50.792;4.352;2023-02-28T16:15:27;3.15;;;2.85;;
22468;SDS011;11401;50.792;4.352;2023-02-28T16:17:56;3.38;;;2.80;;
22468;SDS011;11401;50.792;4.352;2023-02-28T16:20:25;4.60;;;2.38;;
22468;SDS011;11401;50.792;4.352;2023-02-28T16:22:56;2.80;;;2.40;;
22468;SDS011;11401;50.792;4.352;2023-02-28T16:25:35;4.13;;;2.80;;
22468;SDS011;11401;50.792;4.352;2023-02-28T16:28:12;5.07;;;2.83;;
22468;SDS011;11401;50.792;4.352;2023-02-28T16:30:46;3.83;;;3.35;;
22468;SDS011;11401;50.792;4.352;2023-02-28T16:33:14;3.20;;;2.90;;
22468;SDS011;11401;50.792;4.352;2023-02-28T16:35:41;2.92;;;2.65;;
22468;SDS011;11401;50.792;4.352;2023-02-28T16:38:08;4.13;;;3.10;;
22468;SDS011;11401;50.792;4.352;2023-02-28T16:40:36;3.50;;;3.00;;
22468;SDS011;11401;50.792;4.352;2023-02-28T16:43:24;2.85;;;2.67;;
22468;SDS011;11401;50.792;4.352;2023-02-28T16:45:54;6.45;;;3.53;;
22468;SDS011;11401;50.792;4.352;2023-02-28T16:48:27;3.17;;;2.92;;
22468;SDS011;11401;50.792;4.352;2023-02-28T16:50:54;3.28;;;2.97;;
22468;SDS011;11401;50.792;4.352;2023-02-28T16:53:21;3.17;;;2.88;;
22468;SDS011;11401;50.792;4.352;2023-02-28T16:55:48;3.33;;;3.05;;
22468;SDS011;11401;50.792;4.352;2023-02-28T16:58:17;3.38;;;3.08;;
22468;SDS011;11401;50.792;4.352;2023-02-28T17:00:47;4.53;;;3.28;;
22468;SDS011;11401;50.792;4.352;2023-02-28T17:03:33;3.90;;;2.70;;
22468;SDS011;11401;50.792;4.352;2023-02-28T17:06:03;3.53;;;2.97;;
22468;SDS011;11401;50.792;4.352;2023-02-28T17:08:30;3.15;;;2.92;;
22468;SDS011;11401;50.792;4.352;2023-02-28T17:10:59;2.42;;;2.30;;
22468;SDS011;11401;50.792;4.352;2023-02-28T17:13:27;2.42;;;2.30;;
22468;SDS011;11401;50.792;4.352;2023-02-28T17:15:54;9.48;;;3.08;;
22468;SDS011;11401;50.792;4.352;2023-02-28T17:18:22;4.47;;;2.92;;
22468;SDS011;11401;50.792;4.352;2023-02-28T17:20:49;3.70;;;3.05;;
22468;SDS011;11401;50.792;4.352;2023-02-28T17:23:16;7.32;;;4.72;;
22468;SDS011;11401;50.792;4.352;2023-02-28T17:25:43;6.85;;;5.68;;
22468;SDS011;11401;50.792;4.352;2023-02-28T17:28:24;13.30;;;7.72;;
22468;SDS011;11401;50.792;4.352;2023-02-28T17:30:51;13.80;;;7.13;;
22468;SDS011;11401;50.792;4.352;2023-02-28T17:33:18;11.55;;;7.43;;
22468;SDS011;11401;50.792;4.352;2023-02-28T17:35:45;7.00;;;5.90;;
22468;SDS011;11401;50.792;4.352;2023-02-28T17:38:14;8.30;;;5.55;;
22468;SDS011;11401;50.792;4.352;2023-02-28T17:40:43;10.15;;;5.60;;
22468;SDS011;11401;50.792;4.352;2023-02-28T17:43:13;7.22;;;6.38;;
22468;SDS011;11401;50.792;4.352;2023-02-28T17:45:41;6.80;;;4.57;;
22468;SDS011;11401;50.792;4.352;2023-02-28T17:48:11;6.40;;;5.28;;
22468;SDS011;11401;50.792;4.352;2023-02-28T17:50:39;6.30;;;5.18;;
22468;SDS011;11401;50.792;4.352;2023-02-28T17:53:06;7.05;;;4.97;;
22468;SDS011;11401;50.792;4.352;2023-02-28T17:55:33;6.32;;;5.07;;
22468;SDS011;11401;50.792;4.352;2023-02-28T17:58:01;5.47;;;4.97;;
22468;SDS011;11401;50.792;4.352;2023-02-28T18:00:29;8.90;;;5.10;;
22468;SDS011;11401;50.792;4.352;2023-02-28T18:02:59;6.35;;;4.38;;
22468;SDS011;11401;50.792;4.352;2023-02-28T18:05:27;8.63;;;4.45;;
22468;SDS011;11401;50.792;4.352;2023-02-28T18:07:54;5.63;;;4.25;;
22468;SDS011;11401;50.792;4.352;2023-02-28T18:10:21;5.05;;;4.50;;